Time;durP1;ratioP1;P1;durP2;ratioP2;P2;SDS_P1;SDS_P2;PMS_P1;PMS_P2;Temp;Humidity;BMP_temperature;BMP_pressure;BME280_temperature;BME280_humidity;BME280_pressure;Samples;Min_cycle;Max_cycle;Signal;HPM_P1;HPM_P2
2022/01/09 00:00:37;;;;;;;8.60;6.20;;;;;;;1.97;80.69;100576.08;107736;1246;73725;-85
2022/01/09 00:03:10;;;;;;;7.60;6.40;;;;;;;1.94;80.44;100571.21;107603;1247;68691;-82
2022/01/09 00:05:39;;;;;;;8.70;6.10;;;;;;;1.90;80.44;100570.50;107546;1247;72217;-84
2022/01/09 00:08:08;;;;;;;9.00;7.20;;;;;;;1.90;80.23;100566.05;107681;1247;59750;-85
2022/01/09 00:10:37;;;;;;;9.20;6.60;;;;;;;1.89;80.84;100568.31;108387;1246;59738;-85
2022/01/09 00:13:06;;;;;;;7.30;6.20;;;;;;;1.95;80.46;100562.09;107901;1246;72808;-86
2022/01/09 00:15:36;;;;;;;8.80;6.80;;;;;;;1.96;80.32;100563.59;107585;1247;70725;-88
2022/01/09 00:18:05;;;;;;;8.20;6.70;;;;;;;1.99;80.50;100559.02;108100;1246;69715;-83
2022/01/09 00:20:34;;;;;;;9.80;7.20;;;;;;;2.02;80.12;100557.34;107813;1246;72827;-84
2022/01/09 00:23:03;;;;;;;9.40;6.40;;;;;;;1.97;80.27;100552.88;107642;1246;60804;-89
2022/01/09 00:25:32;;;;;;;8.40;6.40;;;;;;;2.00;80.57;100553.83;107835;1246;59040;-85
2022/01/09 00:28:01;;;;;;;8.40;6.20;;;;;;;2.02;80.24;100552.35;107615;1246;73241;-85
2022/01/09 00:30:30;;;;;;;8.30;7.00;;;;;;;2.02;80.36;100553.04;107682;1247;70547;-87
2022/01/09 00:32:59;;;;;;;9.40;7.20;;;;;;;2.05;80.43;100549.30;107691;1247;69347;-84
2022/01/09 00:35:28;;;;;;;9.20;6.60;;;;;;;2.01;80.36;100544.85;107719;1246;72943;-82
2022/01/09 00:37:57;;;;;;;7.70;6.80;;;;;;;1.97;80.58;100540.02;107584;1247;61420;-82
2022/01/09 00:40:26;;;;;;;9.10;7.10;;;;;;;2.01;80.29;100538.85;107725;1247;60448;-86
2022/01/09 00:42:55;;;;;;;10.70;6.80;;;;;;;2.03;80.24;100534.61;107727;1246;73115;-85
2022/01/09 00:45:25;;;;;;;9.50;7.00;;;;;;;1.99;80.42;100528.63;107657;1247;70542;-85
2022/01/09 00:47:56;;;;;;;10.90;7.70;;;;;;;1.96;80.65;100524.09;107664;1247;70129;-83
2022/01/09 00:50:25;;;;;;;10.50;6.60;;;;;;;1.98;80.66;100514.21;107932;1247;71572;-88
2022/01/09 00:52:54;;;;;;;8.50;7.00;;;;;;;1.96;80.67;100514.30;108462;1246;59628;-87
2022/01/09 00:55:23;;;;;;;8.20;6.40;;;;;;;2.01;80.38;100507.05;108133;1246;60034;-87
2022/01/09 00:57:52;;;;;;;8.70;6.70;;;;;;;1.97;80.64;100502.05;107743;1247;72049;-87
2022/01/09 01:00:21;;;;;;;7.60;6.50;;;;;;;1.95;80.68;100502.98;107633;1247;70730;-88
2022/01/09 01:02:50;;;;;;;9.70;6.90;;;;;;;1.95;80.34;100493.91;107619;1246;71041;-80
2022/01/09 01:05:19;;;;;;;8.90;7.10;;;;;;;1.94;80.79;100487.23;107071;1246;765359;-84
2022/01/09 01:07:48;;;;;;;9.70;6.90;;;;;;;1.93;80.69;100481.61;107607;1247;58899;-85
2022/01/09 01:10:17;;;;;;;9.10;7.10;;;;;;;1.89;80.88;100472.83;107669;1246;59362;-87
2022/01/09 01:12:48;;;;;;;9.40;7.00;;;;;;;1.87;81.02;100470.85;107583;1246;73246;-85
2022/01/09 01:15:17;;;;;;;10.30;7.50;;;;;;;1.85;81.16;100472.11;107693;1247;70599;-86
2022/01/09 01:17:46;;;;;;;10.50;7.00;;;;;;;1.85;80.88;100466.98;107731;1246;69423;-88
2022/01/09 01:20:21;;;;;;;8.60;7.00;;;;;;;1.83;81.04;100460.02;107685;1247;73954;-85
2022/01/09 01:22:51;;;;;;;10.10;6.80;;;;;;;1.81;80.98;100451.86;107564;1247;62812;-85
2022/01/09 01:25:21;;;;;;;8.60;7.10;;;;;;;1.80;81.03;100445.19;107552;1246;61530;-87
2022/01/09 01:27:50;;;;;;;9.30;7.00;;;;;;;1.75;81.33;100440.96;107494;1247;73347;-84
2022/01/09 01:30:20;;;;;;;8.80;6.30;;;;;;;1.76;81.50;100436.25;107252;1247;69576;-86
2022/01/09 01:32:49;;;;;;;11.10;6.50;;;;;;;1.78;81.17;100437.04;107511;1247;71641;-86
2022/01/09 01:35:20;;;;;;;9.40;6.40;;;;;;;1.72;81.32;100434.52;107478;1247;72801;-86
2022/01/09 01:37:49;;;;;;;8.70;7.10;;;;;;;1.74;82.07;100432.89;107471;1247;62662;-87
2022/01/09 01:40:19;;;;;;;8.80;6.30;;;;;;;1.83;81.21;100428.75;107652;1246;61839;-86
2022/01/09 01:42:48;;;;;;;11.50;7.30;;;;;;;1.79;81.05;100426.00;107617;1247;73029;-85
2022/01/09 01:45:17;;;;;;;10.20;7.00;;;;;;;1.85;81.06;100427.83;107620;1247;70006;-85
2022/01/09 01:47:46;;;;;;;10.80;6.60;;;;;;;1.85;81.04;100422.67;107594;1247;70051;-87
2022/01/09 01:50:16;;;;;;;9.20;7.00;;;;;;;1.87;80.86;100417.45;107649;1246;74017;-83
2022/01/09 01:52:50;;;;;;;10.40;6.20;;;;;;;1.93;80.39;100413.77;107567;1247;59582;-85
2022/01/09 01:55:19;;;;;;;9.50;6.40;;;;;;;1.89;80.64;100410.33;107607;1247;60106;-83
2022/01/09 01:57:48;;;;;;;9.20;7.10;;;;;;;1.88;80.57;100404.52;107634;1245;72059;-86
2022/01/09 02:00:17;;;;;;;12.00;6.30;;;;;;;1.88;80.82;100398.02;107685;1246;70327;-88
2022/01/09 02:02:46;;;;;;;9.80;6.40;;;;;;;1.89;80.87;100386.61;107844;1246;71694;-85
2022/01/09 02:05:16;;;;;;;8.90;6.10;;;;;;;1.93;80.51;100383.87;107347;1247;74892;-79
2022/01/09 02:07:46;;;;;;;9.10;6.70;;;;;;;1.96;80.17;100382.58;108232;1246;59575;-82
2022/01/09 02:10:15;;;;;;;10.00;6.20;;;;;;;1.99;80.54;100374.36;107442;1247;62233;-81
2022/01/09 02:12:44;;;;;;;8.00;6.20;;;;;;;2.01;79.95;100371.54;107680;1246;75478;-87
2022/01/09 02:15:34;;;;;;;8.70;6.70;;;;;;;2.02;79.87;100369.25;107964;1246;72619;-87
2022/01/09 02:18:08;;;;;;;7.80;6.20;;;;;;;2.02;79.95;100363.22;107567;1247;69247;-87
2022/01/09 02:20:38;;;;;;;8.70;6.30;;;;;;;2.00;80.04;100357.33;107651;1246;73991;-88
2022/01/09 02:23:10;;;;;;;9.70;6.10;;;;;;;1.96;80.18;100353.88;107601;1246;60948;-83
2022/01/09 02:25:40;;;;;;;8.30;6.10;;;;;;;1.97;80.19;100350.23;107478;1247;59312;-85
2022/01/09 02:28:11;;;;;;;8.80;5.80;;;;;;;1.98;80.16;100350.73;107940;1246;73894;-84
2022/01/09 02:30:42;;;;;;;9.10;6.80;;;;;;;2.03;79.96;100347.20;107707;1247;72639;-85
2022/01/09 02:33:15;;;;;;;8.40;6.40;;;;;;;2.05;79.93;100340.08;107753;1247;70927;-89
2022/01/09 02:35:49;;;;;;;11.80;6.20;;;;;;;2.03;80.07;100338.26;107685;1247;72883;-86
2022/01/09 02:38:19;;;;;;;9.10;6.40;;;;;;;2.06;79.70;100336.75;107401;1247;61463;-84
2022/01/09 02:40:54;;;;;;;9.50;6.80;;;;;;;2.08;79.55;100335.52;107602;1248;59599;-86
2022/01/09 02:43:24;;;;;;;8.60;6.50;;;;;;;2.10;79.77;100335.75;107813;1246;72821;-73
2022/01/09 02:46:07;;;;;;;9.90;6.30;;;;;;;2.08;79.62;100330.66;107752;1246;70510;-87
2022/01/09 02:48:37;;;;;;;10.60;6.70;;;;;;;2.11;79.59;100329.18;107644;1247;69312;-86
2022/01/09 02:51:15;;;;;;;11.00;6.90;;;;;;;2.09;79.81;100325.98;107654;1247;73141;-86
2022/01/09 02:53:48;;;;;;;12.60;6.30;;;;;;;2.12;79.61;100316.09;107680;1246;61547;-86
2022/01/09 02:56:17;;;;;;;10.40;6.70;;;;;;;2.18;79.33;100307.25;107739;1246;60304;-87
2022/01/09 02:58:46;;;;;;;9.00;6.50;;;;;;;2.17;79.50;100303.84;108219;1246;73828;-86
2022/01/09 03:01:16;;;;;;;9.10;6.30;;;;;;;2.09;79.54;100298.19;108186;1246;68591;-87
2022/01/09 03:03:45;;;;;;;10.70;6.90;;;;;;;2.12;79.38;100292.38;107614;1247;68729;-88
2022/01/09 03:06:14;;;;;;;8.30;6.20;;;;;;;2.09;79.62;100296.80;107805;1246;73965;-87
2022/01/09 03:08:43;;;;;;;10.40;5.90;;;;;;;2.15;79.48;100296.71;107745;1246;62767;-87
2022/01/09 03:11:12;;;;;;;8.10;6.00;;;;;;;2.19;79.34;100294.63;107706;1247;61302;-86
2022/01/09 03:13:41;;;;;;;10.10;6.70;;;;;;;2.19;79.21;100290.88;107776;1246;75358;-87
2022/01/09 03:16:10;;;;;;;10.20;6.80;;;;;;;2.18;79.27;100287.11;107522;1247;70615;-88
2022/01/09 03:18:39;;;;;;;8.60;6.30;;;;;;;2.21;79.15;100289.23;107736;1247;69047;-88
2022/01/09 03:21:08;;;;;;;12.00;7.00;;;;;;;2.16;79.35;100290.98;107752;1247;72209;-87
2022/01/09 03:23:37;;;;;;;11.10;6.50;;;;;;;2.19;79.48;100291.39;107894;1246;60253;-88
2022/01/09 03:26:09;;;;;;;9.50;6.70;;;;;;;2.20;79.35;100292.56;107887;1247;60803;-88
2022/01/09 03:28:38;;;;;;;10.20;6.40;;;;;;;2.25;79.03;100292.16;108074;1246;72850;-89
2022/01/09 03:31:07;;;;;;;8.90;6.70;;;;;;;2.24;79.15;100295.13;107744;1247;70424;-87
2022/01/09 03:33:36;;;;;;;10.00;6.80;;;;;;;2.23;79.18;100295.66;108036;1246;69120;-86
2022/01/09 03:36:05;;;;;;;10.50;7.10;;;;;;;2.14;79.44;100292.96;107930;1247;72048;-90
2022/01/09 03:38:34;;;;;;;9.60;6.80;;;;;;;2.21;79.73;100290.44;108847;1246;60385;-90
2022/01/09 03:41:03;;;;;;;10.00;6.50;;;;;;;2.24;79.22;100289.25;108197;1246;59537;-87
2022/01/09 03:43:32;;;;;;;8.50;6.20;;;;;;;2.15;79.51;100287.61;108023;1246;71715;-89
2022/01/09 03:46:05;;;;;;;10.00;7.10;;;;;;;2.10;79.64;100286.27;107889;1247;69733;-84
2022/01/09 03:48:34;;;;;;;10.80;6.30;;;;;;;2.11;79.58;100278.85;107883;1246;67725;-85
2022/01/09 03:51:03;;;;;;;9.90;6.00;;;;;;;2.10;79.53;100275.27;107864;1246;71016;-78
2022/01/09 03:53:33;;;;;;;11.40;6.60;;;;;;;2.09;79.69;100274.47;107813;1246;62132;-87
2022/01/09 03:56:02;;;;;;;9.40;6.50;;;;;;;2.10;79.83;100274.59;107777;1246;61355;-81
2022/01/09 03:58:31;;;;;;;9.70;6.50;;;;;;;2.08;79.78;100271.40;107694;1246;72942;-82
2022/01/09 04:01:00;;;;;;;10.70;6.40;;;;;;;2.04;80.01;100266.27;107540;1247;70697;-86
2022/01/09 04:03:29;;;;;;;11.50;6.40;;;;;;;2.06;79.74;100261.71;108426;1246;70263;-88
2022/01/09 04:06:00;;;;;;;9.90;5.90;;;;;;;1.99;80.04;100254.30;108548;1246;75415;-82
2022/01/09 04:08:30;;;;;;;9.70;6.40;;;;;;;2.01;79.95;100257.13;108241;1246;60513;-92
2022/01/09 04:11:03;;;;;;;10.10;6.50;;;;;;;1.96;80.18;100256.15;108074;1246;61902;-84
2022/01/09 04:13:35;;;;;;;9.10;6.40;;;;;;;2.00;80.19;100258.38;107664;1247;72470;-84
2022/01/09 04:16:05;;;;;;;10.70;6.90;;;;;;;2.01;80.06;100256.63;107726;1246;71542;-77
2022/01/09 04:18:34;;;;;;;10.10;6.80;;;;;;;2.09;79.73;100258.16;107590;1247;68335;-85
2022/01/09 04:21:03;;;;;;;8.40;5.80;;;;;;;2.12;79.60;100253.55;107668;1246;72242;-85
2022/01/09 04:23:33;;;;;;;10.00;6.40;;;;;;;2.13;79.49;100249.04;107687;1246;59548;-88
2022/01/09 04:26:02;;;;;;;10.40;7.10;;;;;;;2.03;80.09;100242.10;107758;1246;61193;-88
2022/01/09 04:28:31;;;;;;;10.00;6.20;;;;;;;2.10;80.06;100238.36;107781;1246;73202;-89
2022/01/09 04:31:00;;;;;;;12.10;6.90;;;;;;;2.09;79.83;100235.63;107797;1246;69386;-90
2022/01/09 04:33:29;;;;;;;9.00;6.30;;;;;;;2.11;79.80;100241.73;107835;1246;67986;-88
2022/01/09 04:35:58;;;;;;;9.50;6.10;;;;;;;2.11;80.25;100247.06;107912;1245;71334;-89
2022/01/09 04:38:27;;;;;;;11.20;6.90;;;;;;;2.09;79.98;100246.64;107773;1246;59544;-89
2022/01/09 04:40:56;;;;;;;12.10;7.90;;;;;;;2.10;79.80;100246.05;107944;1244;59011;-89
2022/01/09 04:43:27;;;;;;;12.40;7.50;;;;;;;2.04;80.30;100236.71;107679;1247;71819;-89
2022/01/09 04:45:56;;;;;;;8.80;5.80;;;;;;;2.06;80.06;100238.55;107641;1245;69645;-89
2022/01/09 04:48:25;;;;;;;14.00;7.00;;;;;;;2.03;80.16;100234.36;107903;1245;67981;-88
2022/01/09 04:50:55;;;;;;;13.70;6.70;;;;;;;2.04;80.48;100230.70;107543;1244;72736;-88
2022/01/09 04:53:24;;;;;;;10.50;6.40;;;;;;;2.02;80.19;100235.29;107753;1247;60696;-91
2022/01/09 04:55:54;;;;;;;9.40;6.30;;;;;;;2.03;80.39;100233.52;107921;1246;59765;-91
2022/01/09 04:58:23;;;;;;;12.20;6.40;;;;;;;2.10;80.06;100233.52;107827;1245;74144;-93
2022/01/09 05:00:52;;;;;;;10.30;6.00;;;;;;;2.11;79.69;100233.66;107852;1246;73043;-91
2022/01/09 05:03:21;;;;;;;10.50;6.40;;;;;;;2.14;79.79;100226.50;107998;1244;70565;-91
2022/01/09 05:05:50;;;;;;;13.00;6.80;;;;;;;2.15;79.84;100223.88;108021;1245;71571;-91
2022/01/09 05:08:19;;;;;;;11.20;6.60;;;;;;;2.15;80.09;100221.98;108489;1244;61676;-89
2022/01/09 05:10:48;;;;;;;8.50;6.20;;;;;;;2.23;79.66;100219.23;108626;1245;59444;-88
2022/01/09 05:13:17;;;;;;;10.50;6.50;;;;;;;2.21;79.75;100221.52;109248;1245;71779;-86
2022/01/09 05:15:47;;;;;;;12.10;7.60;;;;;;;2.26;79.83;100214.63;108898;1245;69868;-89
2022/01/09 05:18:16;;;;;;;11.30;7.00;;;;;;;2.30;79.75;100208.92;109058;1244;69360;-88
2022/01/09 05:20:45;;;;;;;11.00;6.50;;;;;;;2.34;79.40;100204.25;108499;1245;73547;-88
2022/01/09 05:23:15;;;;;;;15.10;7.40;;;;;;;2.30;79.89;100202.75;108412;1244;62083;-88
2022/01/09 05:25:45;;;;;;;11.40;6.90;;;;;;;2.32;79.56;100200.58;108533;1246;61999;-89
2022/01/09 05:28:14;;;;;;;10.90;6.90;;;;;;;2.30;79.75;100196.72;108264;1246;72485;-89
2022/01/09 05:30:43;;;;;;;12.70;7.60;;;;;;;2.36;79.46;100189.41;108386;1245;69839;-90
2022/01/09 05:33:12;;;;;;;11.50;6.70;;;;;;;2.28;79.91;100184.07;107745;1246;70218;-87
2022/01/09 05:35:41;;;;;;;11.00;7.50;;;;;;;2.36;79.71;100177.17;107607;1247;75442;-85
2022/01/09 05:38:10;;;;;;;11.70;6.80;;;;;;;2.30;79.98;100169.23;107545;1247;60275;-85
2022/01/09 05:40:39;;;;;;;12.70;7.50;;;;;;;2.27;79.80;100164.70;107747;1245;60123;-88
2022/01/09 05:43:08;;;;;;;10.70;7.10;;;;;;;2.22;79.98;100163.08;107792;1246;73999;-86
2022/01/09 05:45:38;;;;;;;11.20;7.10;;;;;;;2.26;79.86;100165.77;107820;1244;72432;-86
2022/01/09 05:48:07;;;;;;;12.10;7.00;;;;;;;2.26;80.12;100170.63;107870;1244;71963;-89
2022/01/09 05:50:37;;;;;;;11.10;6.60;;;;;;;2.24;80.09;100167.30;107505;1247;72287;-89
2022/01/09 05:53:05;;;;;;;11.60;7.50;;;;;;;2.26;80.10;100169.75;107827;1246;61453;-88
2022/01/09 05:55:34;;;;;;;13.60;7.00;;;;;;;2.23;80.79;100169.36;107749;1245;59382;-87
2022/01/09 05:58:03;;;;;;;13.90;7.70;;;;;;;2.32;80.48;100167.42;107522;1247;72526;-88
2022/01/09 06:00:32;;;;;;;10.10;6.80;;;;;;;2.34;80.35;100158.71;107818;1244;69853;-88
2022/01/09 06:03:02;;;;;;;12.10;7.60;;;;;;;2.35;80.52;100158.65;108091;1246;70547;-87
2022/01/09 06:05:31;;;;;;;13.20;7.80;;;;;;;2.37;80.58;100158.08;107998;1244;72049;-88
2022/01/09 06:08:00;;;;;;;12.00;7.40;;;;;;;2.30;80.67;100155.79;107885;1246;59767;-87
2022/01/09 06:10:29;;;;;;;11.80;6.80;;;;;;;2.28;80.98;100153.52;107788;1247;59770;-88
2022/01/09 06:12:58;;;;;;;11.50;7.60;;;;;;;2.31;81.22;100153.52;108084;1246;74519;-87
2022/01/09 06:15:27;;;;;;;13.20;7.50;;;;;;;2.34;80.87;100156.64;108033;1246;73297;-89
2022/01/09 06:17:55;;;;;;;11.10;7.70;;;;;;;2.34;80.94;100161.48;107899;1246;71315;-88
2022/01/09 06:20:24;;;;;;;12.60;7.70;;;;;;;2.41;81.19;100162.17;107815;1246;74116;-86
2022/01/09 06:22:53;;;;;;;11.50;7.50;;;;;;;2.46;80.86;100149.23;109008;1245;61097;-86
2022/01/09 06:25:23;;;;;;;12.10;7.80;;;;;;;2.47;80.75;100147.13;108714;1247;59685;-85
2022/01/09 06:27:52;;;;;;;14.00;8.20;;;;;;;2.47;80.98;100147.77;108175;1245;74046;-87
2022/01/09 06:30:21;;;;;;;14.60;7.30;;;;;;;2.49;80.87;100144.45;107574;1246;71114;-87
2022/01/09 06:32:50;;;;;;;13.80;8.20;;;;;;;2.51;80.83;100144.36;107659;1247;68585;-88
2022/01/09 06:35:19;;;;;;;13.50;8.90;;;;;;;2.56;81.07;100140.16;108169;1246;72958;-83
2022/01/09 06:37:48;;;;;;;15.00;9.30;;;;;;;2.50;80.87;100139.73;108115;1246;59641;-83
2022/01/09 06:40:18;;;;;;;13.00;7.70;;;;;;;2.48;81.16;100136.73;107636;1247;59724;-89
2022/01/09 06:42:47;;;;;;;16.40;8.30;;;;;;;2.55;80.71;100136.75;107662;1246;73888;-85
2022/01/09 06:45:16;;;;;;;13.80;8.90;;;;;;;2.54;80.83;100140.41;107648;1246;69816;-84
2022/01/09 06:47:46;;;;;;;15.10;8.10;;;;;;;2.56;80.90;100145.67;107532;1246;69925;-85
2022/01/09 06:50:15;;;;;;;14.10;9.30;;;;;;;2.59;81.10;100147.89;107828;1246;75312;-85
2022/01/09 06:52:44;;;;;;;13.10;8.70;;;;;;;2.58;81.56;100143.65;107602;1246;58205;-85
2022/01/09 06:55:14;;;;;;;13.00;8.30;;;;;;;2.62;81.20;100141.05;107743;1246;59596;-86
2022/01/09 06:57:43;;;;;;;13.20;8.40;;;;;;;2.63;80.88;100135.98;107790;1244;74815;-90
2022/01/09 07:00:16;;;;;;;16.40;9.70;;;;;;;2.59;80.71;100125.52;107700;1247;69967;-89
2022/01/09 07:02:45;;;;;;;15.40;10.70;;;;;;;2.54;81.00;100116.32;107765;1246;68752;-90
2022/01/09 07:05:15;;;;;;;17.80;9.50;;;;;;;2.55;81.43;100117.84;107810;1246;71975;-80
2022/01/09 07:07:44;;;;;;;13.90;8.80;;;;;;;2.58;81.43;100115.12;107730;1247;60611;-85
2022/01/09 07:10:13;;;;;;;16.10;9.00;;;;;;;2.56;81.57;100119.70;107618;1247;59608;-86
2022/01/09 07:12:42;;;;;;;14.30;9.10;;;;;;;2.64;81.40;100122.05;107721;1246;72012;-89
2022/01/09 07:15:12;;;;;;;14.40;8.70;;;;;;;2.63;81.08;100125.19;107901;1246;70890;-88
2022/01/09 07:17:41;;;;;;;13.70;8.70;;;;;;;2.61;81.28;100131.30;107827;1244;70548;-89
2022/01/09 07:20:11;;;;;;;15.40;8.70;;;;;;;2.63;81.28;100134.09;107887;1245;71227;-89
2022/01/09 07:22:40;;;;;;;14.40;8.70;;;;;;;2.74;80.82;100134.30;107973;1244;59567;-90
2022/01/09 07:25:10;;;;;;;15.80;9.30;;;;;;;2.80;80.53;100131.58;107904;1245;60643;-91
2022/01/09 07:27:39;;;;;;;13.70;8.70;;;;;;;2.81;80.99;100134.99;107804;1244;73645;-88
2022/01/09 07:30:08;;;;;;;13.40;8.60;;;;;;;2.89;80.34;100140.61;107974;1245;73631;-89
2022/01/09 07:32:40;;;;;;;16.20;9.00;;;;;;;2.96;80.11;100138.89;107695;1245;69086;-88
2022/01/09 07:35:10;;;;;;;15.70;9.20;;;;;;;2.97;80.22;100135.55;107772;1246;71236;-89
2022/01/09 07:37:39;;;;;;;17.50;9.50;;;;;;;3.02;79.73;100137.02;107968;1244;60443;-89
2022/01/09 07:40:09;;;;;;;13.30;9.30;;;;;;;3.07;80.91;100133.02;107850;1244;61564;-88
2022/01/09 07:42:38;;;;;;;15.00;8.90;;;;;;;3.08;80.83;100131.39;107884;1244;72303;-90
2022/01/09 07:45:09;;;;;;;19.00;10.40;;;;;;;3.03;80.19;100125.93;107669;1247;69537;-86
2022/01/09 07:47:38;;;;;;;14.50;8.90;;;;;;;3.02;80.52;100137.05;107699;1244;69766;-89
2022/01/09 07:50:14;;;;;;;16.10;8.30;;;;;;;3.06;80.10;100134.23;108023;1244;72356;-85
2022/01/09 07:52:43;;;;;;;18.70;9.10;;;;;;;3.09;79.58;100130.98;107677;1247;60909;-86
2022/01/09 07:55:12;;;;;;;17.00;9.80;;;;;;;3.16;79.93;100126.85;107841;1244;59765;-76
2022/01/09 07:57:41;;;;;;;14.70;8.90;;;;;;;3.23;79.48;100124.61;107690;1246;73538;-81
2022/01/09 08:00:12;;;;;;;21.10;11.70;;;;;;;3.36;79.43;100126.52;107666;1246;70326;-78
2022/01/09 08:02:43;;;;;;;16.80;10.40;;;;;;;3.36;79.69;100120.12;107559;1247;68680;-78
2022/01/09 08:05:15;;;;;;;19.30;10.30;;;;;;;3.41;78.82;100124.52;107713;1244;71165;-77
2022/01/09 08:07:44;;;;;;;18.10;10.90;;;;;;;3.48;78.87;100118.98;107538;1246;60286;-77
2022/01/09 08:10:13;;;;;;;18.00;10.40;;;;;;;3.51;78.59;100119.04;107546;1246;59523;-75
2022/01/09 08:12:43;;;;;;;16.20;10.00;;;;;;;3.48;78.43;100111.43;107420;1246;74835;-76
2022/01/09 08:15:12;;;;;;;16.60;10.00;;;;;;;3.58;78.69;100103.86;107235;1246;72971;-79
2022/01/09 08:17:46;;;;;;;19.60;11.70;;;;;;;3.61;78.40;100097.48;107595;1245;69354;-82
2022/01/09 08:20:16;;;;;;;15.50;10.70;;;;;;;3.69;78.59;100092.39;107433;1246;74539;-77
2022/01/09 08:22:45;;;;;;;18.80;10.70;;;;;;;3.71;77.93;100089.35;107497;1245;59499;-80
2022/01/09 08:25:18;;;;;;;17.30;9.90;;;;;;;3.73;77.93;100083.71;107325;1246;59768;-75
2022/01/09 08:27:47;;;;;;;21.40;11.30;;;;;;;3.72;77.88;100080.54;107750;1246;74172;-78
2022/01/09 08:30:21;;;;;;;18.60;11.20;;;;;;;3.76;77.83;100079.60;107373;1247;70425;-78
2022/01/09 08:32:53;;;;;;;13.60;8.50;;;;;;;3.83;77.69;100073.20;107333;1245;70556;-77
2022/01/09 08:35:22;;;;;;;16.20;10.80;;;;;;;3.82;77.53;100071.54;107275;1246;72615;-79
2022/01/09 08:37:51;;;;;;;15.60;10.40;;;;;;;3.87;77.59;100069.58;107449;1246;60539;-77
2022/01/09 08:40:22;;;;;;;19.80;10.80;;;;;;;3.87;77.37;100062.12;107392;1246;61906;-74
2022/01/09 08:42:53;;;;;;;16.90;10.50;;;;;;;3.83;77.92;100063.55;107528;1246;74837;-80
2022/01/09 08:45:23;;;;;;;16.70;9.70;;;;;;;3.85;77.55;100061.02;107207;1247;70321;-77
2022/01/09 08:47:52;;;;;;;18.90;10.60;;;;;;;3.79;77.82;100056.71;107396;1246;69123;-78
2022/01/09 08:50:22;;;;;;;19.20;11.80;;;;;;;3.75;78.28;100055.70;107508;1246;73907;-75
2022/01/09 08:52:52;;;;;;;14.90;8.80;;;;;;;3.77;78.16;100054.77;107533;1246;62031;-72
2022/01/09 08:55:25;;;;;;;21.60;11.00;;;;;;;3.70;78.66;100050.83;107500;1244;61050;-74
2022/01/09 08:57:57;;;;;;;17.90;10.20;;;;;;;3.70;78.75;100054.13;107365;1246;72702;-77
2022/01/09 09:00:27;;;;;;;15.10;9.60;;;;;;;3.66;78.89;100051.91;107522;1246;71425;-79
2022/01/09 09:02:57;;;;;;;16.10;10.60;;;;;;;3.65;79.07;100045.07;107391;1246;71357;-74
2022/01/09 09:05:26;;;;;;;17.10;10.50;;;;;;;3.64;79.13;100037.20;107268;1247;74590;-76
2022/01/09 09:07:55;;;;;;;17.40;10.60;;;;;;;3.67;79.44;100028.10;107472;1245;59502;-76
2022/01/09 09:10:25;;;;;;;16.10;9.70;;;;;;;3.82;78.92;100030.02;107613;1245;59727;-73
2022/01/09 09:12:54;;;;;;;17.00;9.20;;;;;;;3.92;79.34;100036.71;107635;1246;72553;-74
2022/01/09 09:15:23;;;;;;;15.00;9.40;;;;;;;3.96;77.92;100040.61;107573;1246;69360;-76
2022/01/09 09:17:55;;;;;;;18.00;9.40;;;;;;;3.92;78.39;100044.60;107523;1246;70225;-76
2022/01/09 09:20:25;;;;;;;23.40;12.40;;;;;;;4.02;78.03;100045.98;107576;1245;72004;-75
2022/01/09 09:22:54;;;;;;;17.40;9.50;;;;;;;4.02;78.11;100045.84;107415;1246;59721;-76
2022/01/09 09:25:23;;;;;;;14.40;8.90;;;;;;;4.06;77.97;100044.19;107682;1246;60436;-74
2022/01/09 09:27:51;;;;;;;17.10;11.50;;;;;;;4.15;78.39;100041.64;107543;1246;72901;-76
2022/01/09 09:30:21;;;;;;;20.90;11.10;;;;;;;4.16;78.24;100034.33;107511;1245;72482;-75
2022/01/09 09:32:50;;;;;;;21.60;11.30;;;;;;;4.21;77.36;100036.63;107529;1246;69651;-73
2022/01/09 09:35:19;;;;;;;17.10;10.30;;;;;;;4.28;77.40;100038.13;107660;1246;70900;-72
2022/01/09 09:37:48;;;;;;;17.50;10.20;;;;;;;4.30;77.34;100039.39;107479;1246;60590;-74
2022/01/09 09:40:17;;;;;;;16.90;10.00;;;;;;;4.41;77.48;100039.31;107874;1246;59433;-75
2022/01/09 09:42:47;;;;;;;15.60;9.60;;;;;;;4.47;77.49;100037.05;107805;1246;72674;-77
2022/01/09 09:45:16;;;;;;;15.50;10.20;;;;;;;4.45;78.08;100037.66;107431;1246;71870;-76
2022/01/09 09:47:46;;;;;;;14.70;9.50;;;;;;;4.37;78.03;100035.03;107217;1247;71218;-78
2022/01/09 09:50:18;;;;;;;14.30;10.00;;;;;;;4.39;77.73;100031.79;107508;1246;72444;-76
2022/01/09 09:52:49;;;;;;;14.60;9.00;;;;;;;4.38;77.97;100032.70;107711;1245;61563;-76
2022/01/09 09:55:19;;;;;;;13.70;8.30;;;;;;;4.51;77.55;100028.34;107658;1246;61624;-74
2022/01/09 09:57:48;;;;;;;12.60;8.40;;;;;;;4.51;77.46;100028.88;107701;1245;75245;-79
2022/01/09 10:00:20;;;;;;;12.50;8.40;;;;;;;4.50;77.28;100027.70;107655;1245;71920;-77
2022/01/09 10:02:59;;;;;;;14.90;8.70;;;;;;;4.47;77.45;100022.88;107723;1245;71239;-76
2022/01/09 10:05:36;;;;;;;12.10;8.60;;;;;;;4.49;78.08;100024.83;107829;1246;72473;-74
2022/01/09 10:08:15;;;;;;;16.50;9.10;;;;;;;4.56;77.66;100029.95;107478;1246;60850;-82
2022/01/09 10:10:44;;;;;;;13.30;8.00;;;;;;;4.53;77.54;100021.33;107831;1246;61705;-80
2022/01/09 10:13:19;;;;;;;16.90;9.30;;;;;;;4.56;77.57;100023.77;107743;1246;74000;-81
2022/01/09 10:15:59;;;;;;;12.40;8.10;;;;;;;4.54;80.21;100017.19;107632;1246;70223;-85
2022/01/09 10:18:39;;;;;;;12.60;8.30;;;;;;;4.55;78.49;100016.39;107492;1246;69715;-84
2022/01/09 10:21:17;;;;;;;12.00;8.20;;;;;;;4.57;77.71;100009.55;107392;1246;73910;-81
2022/01/09 10:24:05;;;;;;;11.80;7.70;;;;;;;4.45;77.84;100004.70;107443;1246;62995;-83
2022/01/09 10:26:41;;;;;;;11.60;7.20;;;;;;;4.40;78.15;99997.58;107664;1246;61062;-83
2022/01/09 10:29:10;;;;;;;23.40;13.80;;;;;;;4.49;78.02;99997.77;107486;1246;72701;-83
2022/01/09 10:31:49;;;;;;;14.90;9.50;;;;;;;4.46;78.53;99992.08;107681;1246;73075;-83
2022/01/09 10:34:18;;;;;;;13.20;9.00;;;;;;;4.40;78.64;99988.98;107426;1246;70903;-84
2022/01/09 10:36:51;;;;;;;14.10;8.00;;;;;;;4.29;79.02;99991.73;107613;1246;71836;-82
2022/01/09 10:39:36;;;;;;;11.40;7.90;;;;;;;4.27;79.73;99996.49;107775;1244;59756;-82
2022/01/09 10:42:07;;;;;;;12.60;8.50;;;;;;;4.22;79.79;99994.17;107665;1246;60490;-83
2022/01/09 10:44:39;;;;;;;11.70;7.90;;;;;;;4.08;80.22;99993.11;107696;1244;74049;-84
2022/01/09 10:47:14;;;;;;;12.80;8.30;;;;;;;4.18;80.31;99992.34;107747;1246;72756;-82
2022/01/09 10:49:50;;;;;;;12.80;8.30;;;;;;;4.19;80.29;99983.53;107997;1246;70916;-89
2022/01/09 10:52:27;;;;;;;12.40;8.10;;;;;;;4.24;80.27;99977.01;107657;1247;72522;-88
2022/01/09 10:55:03;;;;;;;11.90;8.00;;;;;;;4.22;80.15;99966.94;107719;1246;59604;-88
2022/01/09 10:57:36;;;;;;;13.60;8.30;;;;;;;4.26;80.52;99966.72;107732;1246;59736;-87
2022/01/09 11:00:23;;;;;;;12.40;8.30;;;;;;;4.24;81.19;99963.20;107657;1246;74502;-85
2022/01/09 11:02:52;;;;;;;13.20;8.30;;;;;;;4.36;80.63;99964.59;107274;1247;70409;-84
2022/01/09 11:05:21;;;;;;;11.40;7.60;;;;;;;4.47;79.99;99954.80;107628;1245;68286;-83
2022/01/09 11:07:51;;;;;;;12.30;6.70;;;;;;;4.51;79.91;99951.95;107779;1244;72956;-86
2022/01/09 11:10:21;;;;;;;12.10;8.00;;;;;;;4.52;79.98;99955.69;108038;1246;60704;-84
2022/01/09 11:12:54;;;;;;;13.50;8.30;;;;;;;4.48;80.06;99954.73;108370;1245;59036;-84
2022/01/09 11:15:23;;;;;;;13.30;7.60;;;;;;;4.53;80.70;99955.65;107767;1246;72609;-86
2022/01/09 11:17:54;;;;;;;14.10;8.20;;;;;;;4.61;80.48;99959.65;107655;1245;72121;-88
2022/01/09 11:20:24;;;;;;;15.00;8.90;;;;;;;4.69;80.15;99956.07;107408;1246;69667;-85
2022/01/09 11:22:58;;;;;;;13.90;8.20;;;;;;;4.68;80.46;99952.15;107456;1246;74768;-84
2022/01/09 11:25:42;;;;;;;13.20;9.30;;;;;;;4.69;79.90;99941.08;107399;1247;61650;-78
2022/01/09 11:28:24;;;;;;;16.30;9.20;;;;;;;4.77;79.99;99939.02;107620;1245;61722;-82
2022/01/09 11:31:06;;;;;;;15.70;8.60;;;;;;;4.74;80.03;99943.36;107336;1246;72219;-83
2022/01/09 11:34:04;;;;;;;14.80;8.30;;;;;;;4.76;80.13;99947.71;107474;1245;69586;-85